Enterprise, Utah
Current Conditions -  °F | °C
As of 7:53 PM on Tuesday 21 Oct 2014 (Local Time) from KCDC Reporting Station
Clear Clear  
Wind Chill: 56°   Ceiling: Unl
Heat Index: 56°   Visibility: 10mi
Dew Point: 37°   Wind: 7mph
Humidity: 49%   Direction: 220°SW
Pressure: 30.01"   Gusts: NA
Location:  37.57°N, 113.72°W
Report Text: KCDC 220153Z AUTO 22006KT 10SM CLR 13/03 A3001 RMK AO2 SLP120 T01330028 TSNO
Loading
Personal Weather Stations






























Interactive Weather Map
Tropical Storm Tracking
New forecast layout! Learn more

10-Day Weather Forecast

Advertisements
Track Severe Weather on mobile